Normand Flipper — 9V6929 — position and weather

sailwx.info

Track history (hours):
 
Tides and Currents Weather Stations Pressure Air Temp Water Temp Dewpoint Dewpoint Depression Visibility Wind Speed Wind Dir Waves Ship Positions

Normand Flipper

Last reported at 2017-Mar-29 08:33 UTC. Time now 2017-Mar-29 09:17 UTC.
Position N 57°08' W 002°05'.

Length 89 m; draft 4.7 m.

Type: Other ship. MMSI: 566522000.

Date/timePositionNaut miles runAvg speedWind from/ knotsBaromVisibWave heightAir tempDewpointWater temp
2017-Mar-29 08:33N 57°08' W 002°05'0 0.0
2017-Mar-29 07:33N 57°08' W 002°05'0 0.0
2017-Mar-29 06:33N 57°08' W 002°05'0 0.0
2017-Mar-29 05:33N 57°08' W 002°05'0 0.0
2017-Mar-29 04:33N 57°08' W 002°05'0 0.0
2017-Mar-29 03:33N 57°08' W 002°05'0 0.0
2017-Mar-29 02:33N 57°08' W 002°05'0 0.0
2017-Mar-29 01:33N 57°08' W 002°05'0 0.0
2017-Mar-29 00:33N 57°08' W 002°05'3 2.6
2017-Mar-28 23:33N 57°09' W 002°01'9 9.4
2017-Mar-28 22:33N 57°16' W 001°49'1110.7
2017-Mar-28 21:33N 57°26' W 001°39'1010.5
2017-Mar-28 20:33N 57°36' W 001°40'10 9.4
2017-Mar-28 19:32N 57°46' W 001°41'32 0.9
2017-Mar-27 08:18N 58°18' W 001°42'0 0.2
2017-Mar-27 06:14N 58°18' W 001°42'0 0.1
2017-Mar-27 05:20N 58°18' W 001°42'29 0.8
2017-Mar-25 15:33N 57°49' W 001°42'1111.2
2017-Mar-25 14:33N 57°38' W 001°42'1110.9
2017-Mar-25 13:33N 57°27' W 001°42'1010.2
2017-Mar-25 12:33N 57°18' W 001°51'1010.0
2017-Mar-25 11:33N 57°10' W 002°01'2 2.3
2017-Mar-25 10:32N 57°08' W 002°05'0 0.0
2017-Mar-25 09:32N 57°08' W 002°05'0 0.0
2017-Mar-25 08:32N 57°08' W 002°05'0 0.0
2017-Mar-25 07:29N 57°08' W 002°05'0 0.0
2017-Mar-25 06:32N 57°08' W 002°05'0 0.0
2017-Mar-25 05:33N 57°08' W 002°05'5 5.1
2017-Mar-25 04:33N 57°12' W 001°58'7 7.4
2017-Mar-25 03:34N 57°18' W 001°51'10 8.1
2017-Mar-25 02:22N 57°27' W 001°43'7 8.3
2017-Mar-25 01:29N 57°34' W 001°42'9 9.3
2017-Mar-25 00:33N 57°43' W 001°42'8 0.3
2017-Mar-24 01:27N 57°50' W 001°42'1111.9
2017-Mar-24 00:33N 57°40' W 001°42'1111.5
2017-Mar-23 23:33N 57°28' W 001°43'1211.1
2017-Mar-23 22:30N 57°18' W 001°52'1111.1
2017-Mar-23 21:33N 57°09' W 002°03'1 1.3
2017-Mar-23 20:31N 57°08' W 002°05'0 0.0
2017-Mar-23 19:31N 57°08' W 002°05'0 0.0
2017-Mar-23 18:31N 57°08' W 002°05'0 0.0
2017-Mar-23 17:31N 57°08' W 002°05'0 0.0
2017-Mar-23 16:31N 57°08' W 002°05'0 0.0
2017-Mar-23 15:31N 57°08' W 002°05'0 0.0
2017-Mar-23 14:31N 57°08' W 002°05'0 0.0
2017-Mar-23 13:31N 57°08' W 002°05'0 0.0
2017-Mar-23 12:31N 57°08' W 002°05'0 0.2
2017-Mar-23 11:31N 57°08' W 002°05'0 0.1
2017-Mar-23 10:31N 57°09' W 002°04'0 0.0
2017-Mar-23 09:31N 57°09' W 002°04'0 0.0
2017-Mar-23 08:31N 57°09' W 002°04'0 0.0
2017-Mar-23 07:33N 57°09' W 002°04'5 5.1
2017-Mar-23 06:33N 57°12' W 001°58'8 8.5
2017-Mar-23 05:33N 57°19' W 001°50'9 8.6
2017-Mar-23 04:33N 57°27' W 001°43'9 9.5
2017-Mar-23 03:33N 57°37' W 001°43'9 9.4
2017-Mar-23 02:33N 57°46' W 001°42'4 0.2
2017-Mar-21 22:31N 57°51' W 001°41'9 9.3
2017-Mar-21 21:33N 57°42' W 001°41'9 9.3
2017-Mar-21 20:33N 57°32' W 001°41'9 8.9
2017-Mar-21 19:33N 57°24' W 001°45'10 9.4
2017-Mar-21 18:30N 57°15' W 001°54'9 9.2
2017-Mar-21 17:33N 57°08' W 002°04'0 0.3
2017-Mar-21 16:33N 57°08' W 002°05'0 0.0
2017-Mar-21 15:33N 57°08' W 002°05'0 0.0
2017-Mar-21 14:33N 57°08' W 002°05'0 0.0
2017-Mar-21 13:33N 57°08' W 002°05'0 0.0
2017-Mar-21 12:33N 57°08' W 002°05'0 0.2
2017-Mar-21 11:30N 57°09' W 002°04'0 0.0
2017-Mar-21 10:33N 57°09' W 002°04'0 0.0
2017-Mar-21 09:33N 57°09' W 002°04'0 0.3
2017-Mar-21 08:33N 57°08' W 002°05'0 0.0
2017-Mar-21 07:33N 57°08' W 002°05'0 0.0
2017-Mar-21 06:33N 57°08' W 002°05'0 0.0
2017-Mar-21 05:33N 57°08' W 002°05'0 0.0
2017-Mar-21 04:33N 57°08' W 002°05'0 0.0
2017-Mar-21 03:27N 57°08' W 002°05'0 0.0
2017-Mar-21 02:33N 57°08' W 002°05'0 0.0
2017-Mar-21 01:33N 57°08' W 002°05'0 0.0
2017-Mar-21 00:33N 57°08' W 002°05'0 0.0
2017-Mar-20 23:33N 57°08' W 002°05'0 0.0
2017-Mar-20 22:33N 57°08' W 002°05'0 0.0
2017-Mar-20 21:30N 57°08' W 002°05'0 0.0
2017-Mar-20 20:33N 57°08' W 002°05'0 0.0
2017-Mar-20 19:33N 57°08' W 002°05'0 0.0
2017-Mar-20 18:33N 57°08' W 002°05'0 0.0
2017-Mar-20 17:33N 57°08' W 002°05'0 0.0
2017-Mar-20 16:33N 57°08' W 002°05'0 0.3
2017-Mar-20 15:33N 57°09' W 002°04'0 0.0
2017-Mar-20 14:33N 57°09' W 002°04'0 0.0
2017-Mar-20 13:33N 57°09' W 002°04'0 0.0
2017-Mar-20 12:33N 57°09' W 002°04'0 0.0
2017-Mar-20 11:33N 57°09' W 002°04'0 0.0
2017-Mar-20 10:30N 57°09' W 002°04'0 0.3
2017-Mar-20 09:33N 57°08' W 002°05'0 0.0
2017-Mar-20 08:33N 57°08' W 002°05'0 0.0
2017-Mar-20 07:30N 57°08' W 002°05'0 0.0
2017-Mar-20 06:33N 57°08' W 002°05'0 0.0
2017-Mar-20 05:33N 57°08' W 002°05'0 0.0
2017-Mar-20 04:33N 57°08' W 002°05'0 0.0
2017-Mar-20 03:33N 57°08' W 002°05'0 0.0
2017-Mar-20 02:33N 57°08' W 002°05'0 0.0
2017-Mar-20 01:33N 57°08' W 002°05'1 1.5
2017-Mar-20 00:33N 57°09' W 002°02'7 7.4
2017-Mar-19 23:33N 57°15' W 001°54'19 9.4
2017-Mar-19 21:33N 57°33' W 001°42'1010.2
2017-Mar-19 20:33N 57°43' W 001°42'  
Track history (hours):
 
Tides and Currents Weather Stations Pressure Air Temp Water Temp Dewpoint Dewpoint Depression Visibility Wind Speed Wind Dir Waves Ship Positions

Normand Flipper

Last reported at 2017-Mar-29 08:33 UTC. Time now 2017-Mar-29 09:17 UTC.
Position N 57°08' W 002°05'.

Length 89 m; draft 4.7 m.

Type: Other ship. MMSI: 566522000.

Date/timePositionNaut miles runAvg speedWind from/ knotsBaromVisibWave heightAir tempDewpointWater temp
2017-Mar-29 08:33N 57°08' W 002°05'0 0.0
2017-Mar-29 07:33N 57°08' W 002°05'0 0.0
2017-Mar-29 06:33N 57°08' W 002°05'0 0.0
2017-Mar-29 05:33N 57°08' W 002°05'0 0.0
2017-Mar-29 04:33N 57°08' W 002°05'0 0.0
2017-Mar-29 03:33N 57°08' W 002°05'0 0.0
2017-Mar-29 02:33N 57°08' W 002°05'0 0.0
2017-Mar-29 01:33N 57°08' W 002°05'0 0.0
2017-Mar-29 00:33N 57°08' W 002°05'3 2.6
2017-Mar-28 23:33N 57°09' W 002°01'9 9.4
2017-Mar-28 22:33N 57°16' W 001°49'1110.7
2017-Mar-28 21:33N 57°26' W 001°39'1010.5
2017-Mar-28 20:33N 57°36' W 001°40'10 9.4
2017-Mar-28 19:32N 57°46' W 001°41'32 0.9
2017-Mar-27 08:18N 58°18' W 001°42'0 0.2
2017-Mar-27 06:14N 58°18' W 001°42'0 0.1
2017-Mar-27 05:20N 58°18' W 001°42'29 0.8
2017-Mar-25 15:33N 57°49' W 001°42'1111.2
2017-Mar-25 14:33N 57°38' W 001°42'1110.9
2017-Mar-25 13:33N 57°27' W 001°42'1010.2
2017-Mar-25 12:33N 57°18' W 001°51'1010.0
2017-Mar-25 11:33N 57°10' W 002°01'2 2.3
2017-Mar-25 10:32N 57°08' W 002°05'0 0.0
2017-Mar-25 09:32N 57°08' W 002°05'0 0.0
2017-Mar-25 08:32N 57°08' W 002°05'0 0.0
2017-Mar-25 07:29N 57°08' W 002°05'0 0.0
2017-Mar-25 06:32N 57°08' W 002°05'0 0.0
2017-Mar-25 05:33N 57°08' W 002°05'5 5.1
2017-Mar-25 04:33N 57°12' W 001°58'7 7.4
2017-Mar-25 03:34N 57°18' W 001°51'10 8.1
2017-Mar-25 02:22N 57°27' W 001°43'7 8.3
2017-Mar-25 01:29N 57°34' W 001°42'9 9.3
2017-Mar-25 00:33N 57°43' W 001°42'8 0.3
2017-Mar-24 01:27N 57°50' W 001°42'1111.9
2017-Mar-24 00:33N 57°40' W 001°42'1111.5
2017-Mar-23 23:33N 57°28' W 001°43'1211.1
2017-Mar-23 22:30N 57°18' W 001°52'1111.1
2017-Mar-23 21:33N 57°09' W 002°03'1 1.3
2017-Mar-23 20:31N 57°08' W 002°05'0 0.0
2017-Mar-23 19:31N 57°08' W 002°05'0 0.0
2017-Mar-23 18:31N 57°08' W 002°05'0 0.0
2017-Mar-23 17:31N 57°08' W 002°05'0 0.0
2017-Mar-23 16:31N 57°08' W 002°05'0 0.0
2017-Mar-23 15:31N 57°08' W 002°05'0 0.0
2017-Mar-23 14:31N 57°08' W 002°05'0 0.0
2017-Mar-23 13:31N 57°08' W 002°05'0 0.0
2017-Mar-23 12:31N 57°08' W 002°05'0 0.2
2017-Mar-23 11:31N 57°08' W 002°05'0 0.1
2017-Mar-23 10:31N 57°09' W 002°04'0 0.0
2017-Mar-23 09:31N 57°09' W 002°04'0 0.0
2017-Mar-23 08:31N 57°09' W 002°04'0 0.0
2017-Mar-23 07:33N 57°09' W 002°04'5 5.1
2017-Mar-23 06:33N 57°12' W 001°58'8 8.5
2017-Mar-23 05:33N 57°19' W 001°50'9 8.6
2017-Mar-23 04:33N 57°27' W 001°43'9 9.5
2017-Mar-23 03:33N 57°37' W 001°43'9 9.4
2017-Mar-23 02:33N 57°46' W 001°42'4 0.2
2017-Mar-21 22:31N 57°51' W 001°41'9 9.3
2017-Mar-21 21:33N 57°42' W 001°41'9 9.3
2017-Mar-21 20:33N 57°32' W 001°41'9 8.9
2017-Mar-21 19:33N 57°24' W 001°45'10 9.4
2017-Mar-21 18:30N 57°15' W 001°54'9 9.2
2017-Mar-21 17:33N 57°08' W 002°04'0 0.3
2017-Mar-21 16:33N 57°08' W 002°05'0 0.0
2017-Mar-21 15:33N 57°08' W 002°05'0 0.0
2017-Mar-21 14:33N 57°08' W 002°05'0 0.0
2017-Mar-21 13:33N 57°08' W 002°05'0 0.0
2017-Mar-21 12:33N 57°08' W 002°05'0 0.2
2017-Mar-21 11:30N 57°09' W 002°04'0 0.0
2017-Mar-21 10:33N 57°09' W 002°04'0 0.0
2017-Mar-21 09:33N 57°09' W 002°04'0 0.3
2017-Mar-21 08:33N 57°08' W 002°05'0 0.0
2017-Mar-21 07:33N 57°08' W 002°05'0 0.0
2017-Mar-21 06:33N 57°08' W 002°05'0 0.0
2017-Mar-21 05:33N 57°08' W 002°05'0 0.0
2017-Mar-21 04:33N 57°08' W 002°05'0 0.0
2017-Mar-21 03:27N 57°08' W 002°05'0 0.0
2017-Mar-21 02:33N 57°08' W 002°05'0 0.0
2017-Mar-21 01:33N 57°08' W 002°05'0 0.0
2017-Mar-21 00:33N 57°08' W 002°05'0 0.0
2017-Mar-20 23:33N 57°08' W 002°05'0 0.0
2017-Mar-20 22:33N 57°08' W 002°05'0 0.0
2017-Mar-20 21:30N 57°08' W 002°05'0 0.0
2017-Mar-20 20:33N 57°08' W 002°05'0 0.0
2017-Mar-20 19:33N 57°08' W 002°05'0 0.0
2017-Mar-20 18:33N 57°08' W 002°05'0 0.0
2017-Mar-20 17:33N 57°08' W 002°05'0 0.0
2017-Mar-20 16:33N 57°08' W 002°05'0 0.3
2017-Mar-20 15:33N 57°09' W 002°04'0 0.0
2017-Mar-20 14:33N 57°09' W 002°04'0 0.0
2017-Mar-20 13:33N 57°09' W 002°04'0 0.0
2017-Mar-20 12:33N 57°09' W 002°04'0 0.0
2017-Mar-20 11:33N 57°09' W 002°04'0 0.0
2017-Mar-20 10:30N 57°09' W 002°04'0 0.3
2017-Mar-20 09:33N 57°08' W 002°05'0 0.0
2017-Mar-20 08:33N 57°08' W 002°05'0 0.0
2017-Mar-20 07:30N 57°08' W 002°05'0 0.0
2017-Mar-20 06:33N 57°08' W 002°05'0 0.0
2017-Mar-20 05:33N 57°08' W 002°05'0 0.0
2017-Mar-20 04:33N 57°08' W 002°05'0 0.0
2017-Mar-20 03:33N 57°08' W 002°05'0 0.0
2017-Mar-20 02:33N 57°08' W 002°05'0 0.0
2017-Mar-20 01:33N 57°08' W 002°05'1 1.5
2017-Mar-20 00:33N 57°09' W 002°02'7 7.4
2017-Mar-19 23:33N 57°15' W 001°54'19 9.4
2017-Mar-19 21:33N 57°33' W 001°42'1010.2
2017-Mar-19 20:33N 57°43' W 001°42'  

Dump ship's entire track history